sensor_id;sensor_type;location;lat;lon;timestamp;P1;durP1;ratioP1;P2;durP2;ratioP2
65936;SDS011;52707;52.086;5.418;2022-09-11T00:01:20;12.57;;;10.05;;
65936;SDS011;52707;52.086;5.418;2022-09-11T00:03:47;16.58;;;10.68;;
65936;SDS011;52707;52.086;5.418;2022-09-11T00:06:15;15.93;;;10.50;;
65936;SDS011;52707;52.086;5.418;2022-09-11T00:08:55;14.75;;;10.80;;
65936;SDS011;52707;52.086;5.418;2022-09-11T00:11:26;17.50;;;10.93;;
65936;SDS011;52707;52.086;5.418;2022-09-11T00:13:52;17.08;;;11.70;;
65936;SDS011;52707;52.086;5.418;2022-09-11T00:16:23;18.83;;;12.35;;
65936;SDS011;52707;52.086;5.418;2022-09-11T00:18:52;16.88;;;12.32;;
65936;SDS011;52707;52.086;5.418;2022-09-11T00:21:19;19.13;;;12.00;;
65936;SDS011;52707;52.086;5.418;2022-09-11T00:23:45;15.00;;;11.60;;
65936;SDS011;52707;52.086;5.418;2022-09-11T00:26:15;15.57;;;10.82;;
65936;SDS011;52707;52.086;5.418;2022-09-11T00:28:42;16.13;;;10.95;;
65936;SDS011;52707;52.086;5.418;2022-09-11T00:31:15;17.98;;;10.88;;
65936;SDS011;52707;52.086;5.418;2022-09-11T00:33:42;16.05;;;11.63;;
65936;SDS011;52707;52.086;5.418;2022-09-11T00:36:11;18.05;;;11.63;;
65936;SDS011;52707;52.086;5.418;2022-09-11T00:38:38;13.27;;;10.55;;
65936;SDS011;52707;52.086;5.418;2022-09-11T00:41:06;17.30;;;10.55;;
65936;SDS011;52707;52.086;5.418;2022-09-11T00:46:18;11.82;;;9.50;;
65936;SDS011;52707;52.086;5.418;2022-09-11T00:48:44;11.52;;;8.50;;
65936;SDS011;52707;52.086;5.418;2022-09-11T00:51:19;8.88;;;7.85;;
65936;SDS011;52707;52.086;5.418;2022-09-11T00:53:48;14.35;;;9.35;;
65936;SDS011;52707;52.086;5.418;2022-09-11T00:56:14;17.88;;;10.93;;
65936;SDS011;52707;52.086;5.418;2022-09-11T00:58:41;16.52;;;12.32;;
65936;SDS011;52707;52.086;5.418;2022-09-11T01:01:09;16.67;;;12.90;;
65936;SDS011;52707;52.086;5.418;2022-09-11T01:03:35;19.42;;;12.90;;
65936;SDS011;52707;52.086;5.418;2022-09-11T01:06:02;18.50;;;12.57;;
65936;SDS011;52707;52.086;5.418;2022-09-11T01:08:29;16.38;;;11.70;;
65936;SDS011;52707;52.086;5.418;2022-09-11T01:15:57;17.35;;;11.80;;
65936;SDS011;52707;52.086;5.418;2022-09-11T01:18:30;16.42;;;11.95;;
65936;SDS011;52707;52.086;5.418;2022-09-11T01:21:13;12.95;;;10.30;;
65936;SDS011;52707;52.086;5.418;2022-09-11T01:23:59;17.17;;;11.73;;
65936;SDS011;52707;52.086;5.418;2022-09-11T01:29:16;13.65;;;11.43;;
65936;SDS011;52707;52.086;5.418;2022-09-11T01:31:47;14.40;;;11.32;;
65936;SDS011;52707;52.086;5.418;2022-09-11T01:34:33;13.88;;;10.80;;
65936;SDS011;52707;52.086;5.418;2022-09-11T01:37:06;18.40;;;12.07;;
65936;SDS011;52707;52.086;5.418;2022-09-11T01:39:39;21.75;;;12.48;;
65936;SDS011;52707;52.086;5.418;2022-09-11T01:42:08;16.63;;;12.02;;
65936;SDS011;52707;52.086;5.418;2022-09-11T01:44:38;17.40;;;12.73;;
65936;SDS011;52707;52.086;5.418;2022-09-11T01:47:06;12.35;;;10.93;;
65936;SDS011;52707;52.086;5.418;2022-09-11T01:49:37;17.08;;;11.57;;
65936;SDS011;52707;52.086;5.418;2022-09-11T01:52:06;13.75;;;10.60;;
65936;SDS011;52707;52.086;5.418;2022-09-11T01:54:38;16.67;;;11.40;;
65936;SDS011;52707;52.086;5.418;2022-09-11T01:57:08;15.35;;;10.63;;
65936;SDS011;52707;52.086;5.418;2022-09-11T01:59:40;17.70;;;11.10;;
65936;SDS011;52707;52.086;5.418;2022-09-11T02:02:08;16.05;;;10.50;;
65936;SDS011;52707;52.086;5.418;2022-09-11T02:04:40;12.85;;;10.23;;
65936;SDS011;52707;52.086;5.418;2022-09-11T02:07:11;11.15;;;9.63;;
65936;SDS011;52707;52.086;5.418;2022-09-11T02:09:40;15.00;;;10.05;;
65936;SDS011;52707;52.086;5.418;2022-09-11T02:12:10;21.75;;;10.73;;
65936;SDS011;52707;52.086;5.418;2022-09-11T02:14:38;13.25;;;11.45;;
65936;SDS011;52707;52.086;5.418;2022-09-11T02:19:41;17.50;;;11.52;;
65936;SDS011;52707;52.086;5.418;2022-09-11T02:22:08;21.83;;;10.90;;
65936;SDS011;52707;52.086;5.418;2022-09-11T02:24:35;14.40;;;10.13;;
65936;SDS011;52707;52.086;5.418;2022-09-11T02:27:02;13.50;;;10.05;;
65936;SDS011;52707;52.086;5.418;2022-09-11T02:29:28;19.98;;;11.35;;
65936;SDS011;52707;52.086;5.418;2022-09-11T02:31:54;13.98;;;11.60;;
65936;SDS011;52707;52.086;5.418;2022-09-11T02:34:23;18.90;;;12.02;;
65936;SDS011;52707;52.086;5.418;2022-09-11T02:52:04;19.48;;;12.18;;
65936;SDS011;52707;52.086;5.418;2022-09-11T02:54:41;14.75;;;11.13;;
65936;SDS011;52707;52.086;5.418;2022-09-11T02:57:19;15.05;;;11.18;;
65936;SDS011;52707;52.086;5.418;2022-09-11T02:59:52;13.13;;;9.57;;
65936;SDS011;52707;52.086;5.418;2022-09-11T03:02:21;15.10;;;10.20;;
65936;SDS011;52707;52.086;5.418;2022-09-11T03:04:48;14.43;;;9.80;;
65936;SDS011;52707;52.086;5.418;2022-09-11T03:07:14;10.68;;;9.00;;
65936;SDS011;52707;52.086;5.418;2022-09-11T03:09:41;11.57;;;9.55;;
65936;SDS011;52707;52.086;5.418;2022-09-11T03:12:08;13.25;;;8.98;;
65936;SDS011;52707;52.086;5.418;2022-09-11T03:14:35;13.82;;;10.02;;
65936;SDS011;52707;52.086;5.418;2022-09-11T03:17:03;14.25;;;9.70;;
65936;SDS011;52707;52.086;5.418;2022-09-11T03:19:30;18.42;;;10.98;;
65936;SDS011;52707;52.086;5.418;2022-09-11T03:21:56;13.40;;;10.77;;
65936;SDS011;52707;52.086;5.418;2022-09-11T03:24:22;13.32;;;10.35;;
65936;SDS011;52707;52.086;5.418;2022-09-11T03:26:48;12.63;;;10.05;;
65936;SDS011;52707;52.086;5.418;2022-09-11T03:29:15;14.15;;;10.00;;
65936;SDS011;52707;52.086;5.418;2022-09-11T03:31:41;11.57;;;9.82;;
65936;SDS011;52707;52.086;5.418;2022-09-11T03:34:07;15.98;;;10.35;;
65936;SDS011;52707;52.086;5.418;2022-09-11T03:36:35;14.65;;;9.15;;
65936;SDS011;52707;52.086;5.418;2022-09-11T03:39:01;12.70;;;9.45;;
65936;SDS011;52707;52.086;5.418;2022-09-11T03:41:28;16.55;;;10.63;;
65936;SDS011;52707;52.086;5.418;2022-09-11T03:43:54;11.93;;;9.80;;
65936;SDS011;52707;52.086;5.418;2022-09-11T03:46:20;12.27;;;9.50;;
65936;SDS011;52707;52.086;5.418;2022-09-11T03:48:46;12.98;;;9.00;;
65936;SDS011;52707;52.086;5.418;2022-09-11T03:51:13;14.90;;;10.15;;
65936;SDS011;52707;52.086;5.418;2022-09-11T03:53:40;14.05;;;9.55;;
65936;SDS011;52707;52.086;5.418;2022-09-11T03:56:06;20.95;;;10.10;;
65936;SDS011;52707;52.086;5.418;2022-09-11T03:58:33;11.45;;;8.93;;
65936;SDS011;52707;52.086;5.418;2022-09-11T04:00:59;14.65;;;8.85;;
65936;SDS011;52707;52.086;5.418;2022-09-11T04:03:25;13.75;;;8.63;;
65936;SDS011;52707;52.086;5.418;2022-09-11T04:05:58;10.75;;;8.65;;
65936;SDS011;52707;52.086;5.418;2022-09-11T04:08:25;9.57;;;8.55;;
65936;SDS011;52707;52.086;5.418;2022-09-11T04:11:02;14.52;;;9.00;;
65936;SDS011;52707;52.086;5.418;2022-09-11T04:13:32;13.30;;;9.30;;
65936;SDS011;52707;52.086;5.418;2022-09-11T04:15:59;13.95;;;9.27;;
65936;SDS011;52707;52.086;5.418;2022-09-11T04:18:26;13.55;;;9.88;;
65936;SDS011;52707;52.086;5.418;2022-09-11T04:20:52;11.88;;;8.93;;
65936;SDS011;52707;52.086;5.418;2022-09-11T04:23:18;13.45;;;9.30;;
65936;SDS011;52707;52.086;5.418;2022-09-11T04:25:45;13.85;;;8.75;;
65936;SDS011;52707;52.086;5.418;2022-09-11T04:28:11;11.00;;;7.93;;
65936;SDS011;52707;52.086;5.418;2022-09-11T04:30:37;10.98;;;8.27;;
65936;SDS011;52707;52.086;5.418;2022-09-11T04:33:04;11.38;;;8.40;;
65936;SDS011;52707;52.086;5.418;2022-09-11T04:35:31;12.00;;;8.10;;
65936;SDS011;52707;52.086;5.418;2022-09-11T04:37:57;9.40;;;8.23;;
65936;SDS011;52707;52.086;5.418;2022-09-11T04:40:23;10.88;;;8.73;;
65936;SDS011;52707;52.086;5.418;2022-09-11T04:42:49;11.07;;;8.25;;
65936;SDS011;52707;52.086;5.418;2022-09-11T04:45:16;12.27;;;8.57;;
65936;SDS011;52707;52.086;5.418;2022-09-11T04:47:42;11.23;;;8.30;;
65936;SDS011;52707;52.086;5.418;2022-09-11T04:50:09;9.77;;;8.10;;
65936;SDS011;52707;52.086;5.418;2022-09-11T04:52:35;9.48;;;8.43;;
65936;SDS011;52707;52.086;5.418;2022-09-11T04:55:01;13.15;;;7.22;;
65936;SDS011;52707;52.086;5.418;2022-09-11T04:57:28;9.02;;;7.50;;
65936;SDS011;52707;52.086;5.418;2022-09-11T04:59:54;10.35;;;7.15;;
65936;SDS011;52707;52.086;5.418;2022-09-11T05:02:21;9.73;;;6.80;;
65936;SDS011;52707;52.086;5.418;2022-09-11T05:04:47;8.63;;;7.47;;
65936;SDS011;52707;52.086;5.418;2022-09-11T05:07:14;10.15;;;7.70;;
65936;SDS011;52707;52.086;5.418;2022-09-11T05:09:40;9.45;;;7.97;;
65936;SDS011;52707;52.086;5.418;2022-09-11T05:12:06;10.75;;;8.55;;
65936;SDS011;52707;52.086;5.418;2022-09-11T05:14:32;9.90;;;8.45;;
65936;SDS011;52707;52.086;5.418;2022-09-11T05:17:00;21.63;;;12.55;;
65936;SDS011;52707;52.086;5.418;2022-09-11T05:19:27;71.30;;;19.02;;
65936;SDS011;52707;52.086;5.418;2022-09-11T05:21:53;22.77;;;14.02;;
65936;SDS011;52707;52.086;5.418;2022-09-11T05:24:20;298.10;;;21.40;;
65936;SDS011;52707;52.086;5.418;2022-09-11T05:26:46;146.77;;;21.17;;
65936;SDS011;52707;52.086;5.418;2022-09-11T05:29:13;59.05;;;18.90;;
65936;SDS011;52707;52.086;5.418;2022-09-11T05:31:40;85.03;;;19.35;;
65936;SDS011;52707;52.086;5.418;2022-09-11T05:34:06;33.08;;;18.23;;
65936;SDS011;52707;52.086;5.418;2022-09-11T05:36:33;138.10;;;20.40;;
65936;SDS011;52707;52.086;5.418;2022-09-11T05:39:00;107.78;;;20.52;;
65936;SDS011;52707;52.086;5.418;2022-09-11T05:41:28;122.10;;;20.70;;
65936;SDS011;52707;52.086;5.418;2022-09-11T05:43:54;97.63;;;19.95;;
65936;SDS011;52707;52.086;5.418;2022-09-11T05:46:21;28.48;;;18.88;;
65936;SDS011;52707;52.086;5.418;2022-09-11T05:48:47;25.85;;;17.67;;
65936;SDS011;52707;52.086;5.418;2022-09-11T05:51:17;73.88;;;18.00;;
65936;SDS011;52707;52.086;5.418;2022-09-11T05:53:53;167.35;;;20.58;;
65936;SDS011;52707;52.086;5.418;2022-09-11T05:56:21;113.70;;;21.05;;
65936;SDS011;52707;52.086;5.418;2022-09-11T05:58:48;66.85;;;18.58;;
65936;SDS011;52707;52.086;5.418;2022-09-11T06:01:17;25.88;;;16.25;;
65936;SDS011;52707;52.086;5.418;2022-09-11T06:03:44;83.90;;;17.73;;
65936;SDS011;52707;52.086;5.418;2022-09-11T06:06:13;101.45;;;19.67;;
65936;SDS011;52707;52.086;5.418;2022-09-11T06:08:40;130.75;;;18.65;;
65936;SDS011;52707;52.086;5.418;2022-09-11T06:11:10;153.43;;;19.60;;
65936;SDS011;52707;52.086;5.418;2022-09-11T06:13:38;267.35;;;22.13;;
65936;SDS011;52707;52.086;5.418;2022-09-11T06:16:10;260.98;;;23.55;;
65936;SDS011;52707;52.086;5.418;2022-09-11T06:18:43;283.27;;;24.02;;
65936;SDS011;52707;52.086;5.418;2022-09-11T06:21:10;299.45;;;26.25;;
65936;SDS011;52707;52.086;5.418;2022-09-11T06:23:37;419.80;;;25.63;;
65936;SDS011;52707;52.086;5.418;2022-09-11T06:26:05;174.27;;;21.73;;
65936;SDS011;52707;52.086;5.418;2022-09-11T06:28:33;263.67;;;21.27;;
65936;SDS011;52707;52.086;5.418;2022-09-11T06:31:03;215.77;;;21.67;;
65936;SDS011;52707;52.086;5.418;2022-09-11T06:33:33;155.52;;;18.42;;
65936;SDS011;52707;52.086;5.418;2022-09-11T06:36:02;87.05;;;17.15;;
65936;SDS011;52707;52.086;5.418;2022-09-11T06:38:29;171.07;;;19.52;;
65936;SDS011;52707;52.086;5.418;2022-09-11T06:40:57;62.45;;;16.17;;
65936;SDS011;52707;52.086;5.418;2022-09-11T06:43:24;96.40;;;16.95;;
65936;SDS011;52707;52.086;5.418;2022-09-11T06:45:50;126.75;;;17.65;;
65936;SDS011;52707;52.086;5.418;2022-09-11T06:48:17;224.02;;;20.10;;
65936;SDS011;52707;52.086;5.418;2022-09-11T06:50:44;75.25;;;17.52;;
65936;SDS011;52707;52.086;5.418;2022-09-11T06:53:10;120.55;;;18.52;;
65936;SDS011;52707;52.086;5.418;2022-09-11T06:55:38;63.17;;;16.75;;
65936;SDS011;52707;52.086;5.418;2022-09-11T06:58:04;59.45;;;15.13;;
65936;SDS011;52707;52.086;5.418;2022-09-11T07:00:30;27.50;;;14.68;;
65936;SDS011;52707;52.086;5.418;2022-09-11T07:02:58;14.75;;;13.15;;
65936;SDS011;52707;52.086;5.418;2022-09-11T07:05:24;25.30;;;14.35;;
65936;SDS011;52707;52.086;5.418;2022-09-11T07:07:51;27.98;;;15.43;;
65936;SDS011;52707;52.086;5.418;2022-09-11T07:10:18;65.75;;;17.48;;
65936;SDS011;52707;52.086;5.418;2022-09-11T07:12:44;30.73;;;15.40;;
65936;SDS011;52707;52.086;5.418;2022-09-11T07:15:10;27.65;;;16.80;;
65936;SDS011;52707;52.086;5.418;2022-09-11T07:17:36;20.80;;;16.42;;
65936;SDS011;52707;52.086;5.418;2022-09-11T07:20:03;18.25;;;15.05;;
65936;SDS011;52707;52.086;5.418;2022-09-11T07:22:30;42.20;;;17.67;;
65936;SDS011;52707;52.086;5.418;2022-09-11T07:24:56;77.97;;;17.65;;
65936;SDS011;52707;52.086;5.418;2022-09-11T07:27:22;90.78;;;19.30;;
65936;SDS011;52707;52.086;5.418;2022-09-11T07:29:49;20.75;;;16.23;;
65936;SDS011;52707;52.086;5.418;2022-09-11T07:32:15;53.65;;;18.08;;
65936;SDS011;52707;52.086;5.418;2022-09-11T07:34:41;25.92;;;16.48;;
65936;SDS011;52707;52.086;5.418;2022-09-11T07:37:08;30.85;;;18.02;;
65936;SDS011;52707;52.086;5.418;2022-09-11T07:39:34;27.58;;;17.17;;
65936;SDS011;52707;52.086;5.418;2022-09-11T07:42:00;33.47;;;17.70;;
65936;SDS011;52707;52.086;5.418;2022-09-11T07:44:27;19.30;;;16.75;;
65936;SDS011;52707;52.086;5.418;2022-09-11T07:46:53;18.40;;;16.02;;
65936;SDS011;52707;52.086;5.418;2022-09-11T07:49:19;56.53;;;18.55;;
65936;SDS011;52707;52.086;5.418;2022-09-11T07:51:45;22.38;;;15.75;;
65936;SDS011;52707;52.086;5.418;2022-09-11T07:54:12;27.65;;;18.10;;
65936;SDS011;52707;52.086;5.418;2022-09-11T07:56:38;30.88;;;17.67;;
65936;SDS011;52707;52.086;5.418;2022-09-11T07:59:06;25.08;;;17.23;;
65936;SDS011;52707;52.086;5.418;2022-09-11T08:01:33;23.33;;;16.65;;
65936;SDS011;52707;52.086;5.418;2022-09-11T08:04:03;20.95;;;17.63;;
65936;SDS011;52707;52.086;5.418;2022-09-11T08:08:57;26.85;;;18.92;;
65936;SDS011;52707;52.086;5.418;2022-09-11T08:11:24;24.45;;;18.70;;
65936;SDS011;52707;52.086;5.418;2022-09-11T08:13:50;28.40;;;19.60;;
65936;SDS011;52707;52.086;5.418;2022-09-11T08:16:17;24.58;;;19.70;;
65936;SDS011;52707;52.086;5.418;2022-09-11T08:18:44;30.70;;;20.67;;
65936;SDS011;52707;52.086;5.418;2022-09-11T08:21:11;26.20;;;20.13;;
65936;SDS011;52707;52.086;5.418;2022-09-11T08:23:39;25.52;;;19.58;;
65936;SDS011;52707;52.086;5.418;2022-09-11T08:28:32;28.83;;;20.63;;
65936;SDS011;52707;52.086;5.418;2022-09-11T08:30:59;29.95;;;21.15;;
65936;SDS011;52707;52.086;5.418;2022-09-11T08:33:27;26.02;;;20.58;;
65936;SDS011;52707;52.086;5.418;2022-09-11T08:35:53;26.23;;;18.95;;
65936;SDS011;52707;52.086;5.418;2022-09-11T08:38:19;22.45;;;18.13;;
65936;SDS011;52707;52.086;5.418;2022-09-11T08:40:45;26.50;;;18.52;;
65936;SDS011;52707;52.086;5.418;2022-09-11T08:43:22;24.77;;;18.15;;
65936;SDS011;52707;52.086;5.418;2022-09-11T08:45:49;22.02;;;16.63;;
65936;SDS011;52707;52.086;5.418;2022-09-11T08:48:17;17.00;;;13.10;;
65936;SDS011;52707;52.086;5.418;2022-09-11T08:50:47;13.10;;;8.60;;
65936;SDS011;52707;52.086;5.418;2022-09-11T08:53:15;16.33;;;11.25;;
65936;SDS011;52707;52.086;5.418;2022-09-11T08:55:42;16.20;;;10.20;;
65936;SDS011;52707;52.086;5.418;2022-09-11T08:58:30;13.02;;;7.95;;
65936;SDS011;52707;52.086;5.418;2022-09-11T09:01:22;8.68;;;4.30;;
65936;SDS011;52707;52.086;5.418;2022-09-11T09:14:10;7.63;;;5.72;;
65936;SDS011;52707;52.086;5.418;2022-09-11T09:19:25;5.90;;;2.72;;
65936;SDS011;52707;52.086;5.418;2022-09-11T09:24:42;8.32;;;4.50;;
65936;SDS011;52707;52.086;5.418;2022-09-11T09:27:14;8.32;;;4.30;;
65936;SDS011;52707;52.086;5.418;2022-09-11T09:29:41;9.88;;;4.18;;
65936;SDS011;52707;52.086;5.418;2022-09-11T09:32:12;10.43;;;4.72;;
65936;SDS011;52707;52.086;5.418;2022-09-11T09:34:39;9.27;;;5.30;;
65936;SDS011;52707;52.086;5.418;2022-09-11T09:37:14;15.25;;;5.25;;
65936;SDS011;52707;52.086;5.418;2022-09-11T09:39:41;9.75;;;5.28;;
65936;SDS011;52707;52.086;5.418;2022-09-11T09:47:11;7.80;;;3.50;;
65936;SDS011;52707;52.086;5.418;2022-09-11T09:49:38;9.20;;;3.88;;
65936;SDS011;52707;52.086;5.418;2022-09-11T09:52:23;12.23;;;4.10;;
65936;SDS011;52707;52.086;5.418;2022-09-11T09:57:23;4.43;;;2.50;;
65936;SDS011;52707;52.086;5.418;2022-09-11T10:00:03;20.17;;;2.85;;
65936;SDS011;52707;52.086;5.418;2022-09-11T10:02:38;5.32;;;2.10;;
65936;SDS011;52707;52.086;5.418;2022-09-11T10:07:45;4.55;;;1.95;;
65936;SDS011;52707;52.086;5.418;2022-09-11T10:10:31;6.03;;;1.98;;
65936;SDS011;52707;52.086;5.418;2022-09-11T10:13:00;7.95;;;2.08;;
65936;SDS011;52707;52.086;5.418;2022-09-11T10:15:44;5.72;;;2.72;;
65936;SDS011;52707;52.086;5.418;2022-09-11T10:18:23;7.00;;;2.85;;
65936;SDS011;52707;52.086;5.418;2022-09-11T10:26:42;9.38;;;3.45;;
65936;SDS011;52707;52.086;5.418;2022-09-11T10:31:40;7.95;;;3.10;;
65936;SDS011;52707;52.086;5.418;2022-09-11T10:34:16;7.05;;;3.15;;
65936;SDS011;52707;52.086;5.418;2022-09-11T10:36:54;8.20;;;2.95;;
65936;SDS011;52707;52.086;5.418;2022-09-11T10:39:22;7.82;;;2.42;;
65936;SDS011;52707;52.086;5.418;2022-09-11T10:41:50;8.65;;;3.63;;
65936;SDS011;52707;52.086;5.418;2022-09-11T10:44:19;6.35;;;3.38;;
65936;SDS011;52707;52.086;5.418;2022-09-11T10:47:01;5.60;;;3.00;;
65936;SDS011;52707;52.086;5.418;2022-09-11T10:49:27;6.55;;;3.10;;
65936;SDS011;52707;52.086;5.418;2022-09-11T10:51:57;5.50;;;2.90;;
65936;SDS011;52707;52.086;5.418;2022-09-11T10:54:33;5.43;;;2.33;;
65936;SDS011;52707;52.086;5.418;2022-09-11T10:59:38;6.38;;;2.30;;
65936;SDS011;52707;52.086;5.418;2022-09-11T11:02:14;4.22;;;2.13;;
65936;SDS011;52707;52.086;5.418;2022-09-11T11:04:42;4.40;;;2.58;;
65936;SDS011;52707;52.086;5.418;2022-09-11T11:07:11;5.55;;;2.30;;
65936;SDS011;52707;52.086;5.418;2022-09-11T11:09:47;8.27;;;2.05;;
65936;SDS011;52707;52.086;5.418;2022-09-11T11:25:12;5.57;;;2.00;;
65936;SDS011;52707;52.086;5.418;2022-09-11T11:35:15;3.67;;;1.83;;
65936;SDS011;52707;52.086;5.418;2022-09-11T11:37:44;6.03;;;2.37;;
65936;SDS011;52707;52.086;5.418;2022-09-11T11:42:43;4.65;;;2.20;;
65936;SDS011;52707;52.086;5.418;2022-09-11T11:45:21;5.30;;;1.83;;
65936;SDS011;52707;52.086;5.418;2022-09-11T11:47:49;6.60;;;1.88;;
65936;SDS011;52707;52.086;5.418;2022-09-11T11:55:33;4.93;;;1.42;;
65936;SDS011;52707;52.086;5.418;2022-09-11T11:58:11;3.97;;;1.45;;
65936;SDS011;52707;52.086;5.418;2022-09-11T12:00:40;4.82;;;1.40;;
65936;SDS011;52707;52.086;5.418;2022-09-11T12:03:54;6.15;;;1.70;;
65936;SDS011;52707;52.086;5.418;2022-09-11T12:05:58;3.92;;;2.08;;
65936;SDS011;52707;52.086;5.418;2022-09-11T12:08:25;3.30;;;1.70;;
65936;SDS011;52707;52.086;5.418;2022-09-11T12:10:53;3.47;;;1.23;;
65936;SDS011;52707;52.086;5.418;2022-09-11T12:13:23;8.23;;;1.48;;
65936;SDS011;52707;52.086;5.418;2022-09-11T12:16:25;4.85;;;1.30;;
65936;SDS011;52707;52.086;5.418;2022-09-11T12:26:29;3.60;;;1.70;;
65936;SDS011;52707;52.086;5.418;2022-09-11T12:32:17;3.97;;;2.30;;
65936;SDS011;52707;52.086;5.418;2022-09-11T12:40:33;5.35;;;1.80;;
65936;SDS011;52707;52.086;5.418;2022-09-11T12:43:14;5.15;;;2.10;;
65936;SDS011;52707;52.086;5.418;2022-09-11T12:45:42;3.85;;;1.80;;
65936;SDS011;52707;52.086;5.418;2022-09-11T12:48:15;4.28;;;1.90;;
65936;SDS011;52707;52.086;5.418;2022-09-11T12:50:47;4.80;;;2.38;;
65936;SDS011;52707;52.086;5.418;2022-09-11T12:53:15;6.20;;;2.15;;
65936;SDS011;52707;52.086;5.418;2022-09-11T12:56:17;3.97;;;1.75;;
65936;SDS011;52707;52.086;5.418;2022-09-11T12:58:36;3.90;;;1.67;;
65936;SDS011;52707;52.086;5.418;2022-09-11T13:01:05;5.40;;;1.98;;
65936;SDS011;52707;52.086;5.418;2022-09-11T13:03:33;7.10;;;1.70;;
65936;SDS011;52707;52.086;5.418;2022-09-11T13:06:04;5.13;;;1.63;;
65936;SDS011;52707;52.086;5.418;2022-09-11T13:08:33;7.82;;;1.98;;
65936;SDS011;52707;52.086;5.418;2022-09-11T13:13:50;6.93;;;1.95;;
65936;SDS011;52707;52.086;5.418;2022-09-11T13:16:23;6.72;;;1.80;;
65936;SDS011;52707;52.086;5.418;2022-09-11T13:18:51;4.60;;;1.80;;
65936;SDS011;52707;52.086;5.418;2022-09-11T13:21:21;4.47;;;2.03;;
65936;SDS011;52707;52.086;5.418;2022-09-11T13:23:51;2.97;;;1.90;;
65936;SDS011;52707;52.086;5.418;2022-09-11T13:26:25;6.10;;;1.70;;
65936;SDS011;52707;52.086;5.418;2022-09-11T13:28:53;8.75;;;1.90;;
65936;SDS011;52707;52.086;5.418;2022-09-11T13:31:41;5.55;;;2.40;;
65936;SDS011;52707;52.086;5.418;2022-09-11T13:34:15;8.63;;;3.47;;
65936;SDS011;52707;52.086;5.418;2022-09-11T13:36:42;7.25;;;2.85;;
65936;SDS011;52707;52.086;5.418;2022-09-11T13:39:08;5.15;;;2.50;;
65936;SDS011;52707;52.086;5.418;2022-09-11T13:41:36;5.40;;;2.50;;
65936;SDS011;52707;52.086;5.418;2022-09-11T13:44:06;4.25;;;2.15;;
65936;SDS011;52707;52.086;5.418;2022-09-11T13:46:34;3.45;;;2.30;;
65936;SDS011;52707;52.086;5.418;2022-09-11T13:51:38;7.00;;;2.95;;
65936;SDS011;52707;52.086;5.418;2022-09-11T13:54:07;5.68;;;2.50;;
65936;SDS011;52707;52.086;5.418;2022-09-11T13:56:44;3.45;;;1.73;;
65936;SDS011;52707;52.086;5.418;2022-09-11T13:59:25;2.42;;;1.70;;
65936;SDS011;52707;52.086;5.418;2022-09-11T14:01:52;6.47;;;1.83;;
65936;SDS011;52707;52.086;5.418;2022-09-11T14:04:20;8.55;;;2.50;;
65936;SDS011;52707;52.086;5.418;2022-09-11T14:06:47;5.60;;;2.03;;
65936;SDS011;52707;52.086;5.418;2022-09-11T14:09:14;3.67;;;2.30;;
65936;SDS011;52707;52.086;5.418;2022-09-11T14:11:43;10.38;;;2.55;;
65936;SDS011;52707;52.086;5.418;2022-09-11T14:14:10;11.10;;;2.22;;
65936;SDS011;52707;52.086;5.418;2022-09-11T14:16:45;17.05;;;6.88;;
65936;SDS011;52707;52.086;5.418;2022-09-11T14:21:39;8.55;;;3.20;;
65936;SDS011;52707;52.086;5.418;2022-09-11T14:24:25;5.07;;;2.97;;
65936;SDS011;52707;52.086;5.418;2022-09-11T14:26:52;4.18;;;2.42;;
65936;SDS011;52707;52.086;5.418;2022-09-11T14:29:25;3.65;;;2.30;;
65936;SDS011;52707;52.086;5.418;2022-09-11T14:31:54;6.95;;;1.95;;
65936;SDS011;52707;52.086;5.418;2022-09-11T14:34:39;4.82;;;1.75;;
65936;SDS011;52707;52.086;5.418;2022-09-11T14:37:11;4.07;;;1.80;;
65936;SDS011;52707;52.086;5.418;2022-09-11T14:39:44;3.33;;;1.50;;
65936;SDS011;52707;52.086;5.418;2022-09-11T14:42:13;5.93;;;1.92;;
65936;SDS011;52707;52.086;5.418;2022-09-11T14:44:41;4.67;;;1.93;;
65936;SDS011;52707;52.086;5.418;2022-09-11T14:47:14;6.82;;;1.98;;
65936;SDS011;52707;52.086;5.418;2022-09-11T14:49:42;5.05;;;1.60;;
65936;SDS011;52707;52.086;5.418;2022-09-11T14:52:11;41.08;;;3.53;;
65936;SDS011;52707;52.086;5.418;2022-09-11T14:54:38;5.45;;;2.22;;
65936;SDS011;52707;52.086;5.418;2022-09-11T14:57:11;3.38;;;1.80;;
65936;SDS011;52707;52.086;5.418;2022-09-11T14:59:43;5.90;;;2.05;;
65936;SDS011;52707;52.086;5.418;2022-09-11T15:02:14;8.18;;;1.80;;
65936;SDS011;52707;52.086;5.418;2022-09-11T15:04:40;4.00;;;2.00;;
65936;SDS011;52707;52.086;5.418;2022-09-11T15:07:10;5.00;;;2.40;;
65936;SDS011;52707;52.086;5.418;2022-09-11T15:09:36;4.75;;;1.83;;
65936;SDS011;52707;52.086;5.418;2022-09-11T15:12:03;6.05;;;2.10;;
65936;SDS011;52707;52.086;5.418;2022-09-11T15:14:29;5.85;;;2.08;;
65936;SDS011;52707;52.086;5.418;2022-09-11T15:17:17;4.22;;;1.65;;
65936;SDS011;52707;52.086;5.418;2022-09-11T15:19:45;3.72;;;1.58;;
65936;SDS011;52707;52.086;5.418;2022-09-11T15:22:12;4.25;;;1.70;;
65936;SDS011;52707;52.086;5.418;2022-09-11T15:24:39;3.50;;;1.50;;
65936;SDS011;52707;52.086;5.418;2022-09-11T15:27:06;4.45;;;1.40;;
65936;SDS011;52707;52.086;5.418;2022-09-11T15:29:33;4.55;;;1.30;;
65936;SDS011;52707;52.086;5.418;2022-09-11T15:31:59;7.07;;;4.97;;
65936;SDS011;52707;52.086;5.418;2022-09-11T15:34:26;3.40;;;1.33;;
65936;SDS011;52707;52.086;5.418;2022-09-11T15:36:56;6.72;;;2.35;;
65936;SDS011;52707;52.086;5.418;2022-09-11T15:39:23;3.95;;;1.70;;
65936;SDS011;52707;52.086;5.418;2022-09-11T15:41:55;10.30;;;2.42;;
65936;SDS011;52707;52.086;5.418;2022-09-11T15:44:23;3.63;;;1.60;;
65936;SDS011;52707;52.086;5.418;2022-09-11T15:46:50;5.55;;;1.65;;
65936;SDS011;52707;52.086;5.418;2022-09-11T15:49:17;7.47;;;1.58;;
65936;SDS011;52707;52.086;5.418;2022-09-11T15:51:43;13.95;;;2.05;;
65936;SDS011;52707;52.086;5.418;2022-09-11T15:54:10;3.38;;;1.50;;
65936;SDS011;52707;52.086;5.418;2022-09-11T15:56:36;2.30;;;1.60;;
65936;SDS011;52707;52.086;5.418;2022-09-11T15:59:03;3.67;;;1.52;;
65936;SDS011;52707;52.086;5.418;2022-09-11T16:01:30;4.90;;;2.25;;
65936;SDS011;52707;52.086;5.418;2022-09-11T16:04:01;17.88;;;8.75;;
65936;SDS011;52707;52.086;5.418;2022-09-11T16:06:29;38.75;;;25.38;;
65936;SDS011;52707;52.086;5.418;2022-09-11T16:08:59;30.25;;;17.52;;
65936;SDS011;52707;52.086;5.418;2022-09-11T16:11:25;6.38;;;2.00;;
65936;SDS011;52707;52.086;5.418;2022-09-11T16:13:52;5.82;;;2.17;;
65936;SDS011;52707;52.086;5.418;2022-09-11T16:16:18;3.03;;;1.60;;
65936;SDS011;52707;52.086;5.418;2022-09-11T16:18:45;3.88;;;1.80;;
65936;SDS011;52707;52.086;5.418;2022-09-11T16:21:12;4.93;;;2.28;;
65936;SDS011;52707;52.086;5.418;2022-09-11T16:23:39;19.20;;;2.35;;
65936;SDS011;52707;52.086;5.418;2022-09-11T16:26:06;6.93;;;2.70;;
65936;SDS011;52707;52.086;5.418;2022-09-11T16:28:34;6.88;;;3.20;;
65936;SDS011;52707;52.086;5.418;2022-09-11T16:31:01;11.63;;;1.83;;
65936;SDS011;52707;52.086;5.418;2022-09-11T16:33:31;5.70;;;2.53;;
65936;SDS011;52707;52.086;5.418;2022-09-11T16:36:01;4.43;;;1.90;;
65936;SDS011;52707;52.086;5.418;2022-09-11T16:38:34;3.40;;;1.65;;
65936;SDS011;52707;52.086;5.418;2022-09-11T16:41:05;2.03;;;1.50;;
65936;SDS011;52707;52.086;5.418;2022-09-11T16:43:35;4.82;;;1.50;;
65936;SDS011;52707;52.086;5.418;2022-09-11T16:46:02;4.18;;;1.83;;
65936;SDS011;52707;52.086;5.418;2022-09-11T16:48:29;4.55;;;2.10;;